Time;durP1;ratioP1;P1;durP2;ratioP2;P2;SDS_P1;SDS_P2;PMS_P1;PMS_P2;Temp;Humidity;BMP_temperature;BMP_pressure;BME280_temperature;BME280_humidity;BME280_pressure;Samples;Min_cycle;Max_cycle;Signal;HPM_P1;HPM_P2
2022/03/10 00:01:19;;;;;;;4.22;1.52;;;;;;;;;;7390972;19;20414;-77
2022/03/10 00:03:44;;;;;;;4.20;1.02;;;;;;;;;;7394093;19;20006;-77
2022/03/10 00:06:10;;;;;;;2.13;1.00;;;;;;;;;;7392891;19;20003;-77
2022/03/10 00:08:35;;;;;;;2.20;1.20;;;;;;;;;;7392536;19;20023;-77
2022/03/10 00:11:00;;;;;;;1.45;0.85;;;;;;;;;;7393163;19;20070;-77
2022/03/10 00:13:29;;;;;;;2.08;1.30;;;;;;;;;;7395212;19;20339;-77
2022/03/10 00:15:55;;;;;;;2.50;1.02;;;;;;;;;;7389868;19;20015;-77
2022/03/10 00:18:20;;;;;;;2.33;1.10;;;;;;;;;;7393421;19;20002;-77
2022/03/10 00:20:45;;;;;;;1.77;1.08;;;;;;;;;;7394405;19;20009;-75
2022/03/10 00:23:11;;;;;;;2.03;1.08;;;;;;;;;;7390733;19;20096;-75
2022/03/10 00:25:37;;;;;;;2.53;1.17;;;;;;;;;;7390251;19;20394;-76
2022/03/10 00:28:02;;;;;;;2.22;1.25;;;;;;;;;;7393699;19;20019;-76
2022/03/10 00:30:27;;;;;;;3.35;1.20;;;;;;;;;;7388835;19;20019;-76
2022/03/10 00:32:53;;;;;;;11.00;1.63;;;;;;;;;;7390554;19;20006;-76
2022/03/10 00:35:20;;;;;;;0.95;0.85;;;;;;;;;;7390139;19;20009;-76
2022/03/10 00:37:47;;;;;;;2.10;1.08;;;;;;;;;;7391812;19;20018;-76
2022/03/10 00:40:13;;;;;;;2.30;1.17;;;;;;;;;;7393660;19;20009;-75
2022/03/10 00:42:39;;;;;;;2.60;1.00;;;;;;;;;;7389068;19;20114;-76
2022/03/10 00:45:05;;;;;;;3.30;1.00;;;;;;;;;;7393078;19;20048;-76
2022/03/10 00:47:31;;;;;;;3.05;1.02;;;;;;;;;;7387573;19;20014;-76
2022/03/10 00:49:56;;;;;;;1.67;1.02;;;;;;;;;;7391513;19;20085;-76
2022/03/10 00:52:21;;;;;;;2.92;1.48;;;;;;;;;;7385665;19;20030;-76
2022/03/10 00:54:47;;;;;;;2.88;1.20;;;;;;;;;;7394396;19;20010;-76
2022/03/10 00:57:12;;;;;;;3.40;1.23;;;;;;;;;;7390061;19;20011;-75
2022/03/10 00:59:37;;;;;;;2.97;1.30;;;;;;;;;;7391204;19;20014;-76
2022/03/10 01:02:03;;;;;;;2.65;1.30;;;;;;;;;;7388979;19;20447;-76
2022/03/10 01:04:28;;;;;;;3.33;1.20;;;;;;;;;;7391831;19;20353;-76
2022/03/10 01:06:53;;;;;;;4.70;1.35;;;;;;;;;;7389207;19;20010;-75
2022/03/10 01:09:18;;;;;;;2.03;1.00;;;;;;;;;;7389337;19;20352;-77
2022/03/10 01:11:44;;;;;;;3.85;1.45;;;;;;;;;;7389623;19;20030;-76
2022/03/10 01:14:09;;;;;;;2.80;1.40;;;;;;;;;;7393770;19;20103;-75
2022/03/10 01:16:34;;;;;;;4.30;1.60;;;;;;;;;;7388947;19;20481;-77
2022/03/10 01:18:59;;;;;;;3.10;1.15;;;;;;;;;;7390757;19;20073;-76
2022/03/10 01:21:25;;;;;;;2.83;1.35;;;;;;;;;;7390909;19;20031;-76
2022/03/10 01:23:50;;;;;;;2.72;1.27;;;;;;;;;;7388762;19;20463;-76
2022/03/10 01:26:15;;;;;;;7.63;1.40;;;;;;;;;;7389928;19;20014;-76
2022/03/10 01:28:41;;;;;;;3.95;1.33;;;;;;;;;;7388992;19;20015;-76
2022/03/10 01:31:06;;;;;;;2.75;1.33;;;;;;;;;;7391289;19;20046;-76
2022/03/10 01:33:31;;;;;;;4.13;1.02;;;;;;;;;;7390133;19;20026;-76
2022/03/10 01:35:57;;;;;;;2.17;1.33;;;;;;;;;;7388078;19;20013;-76
2022/03/10 01:38:22;;;;;;;2.20;1.25;;;;;;;;;;7385906;19;20011;-76
2022/03/10 01:40:47;;;;;;;2.30;1.15;;;;;;;;;;7392402;19;20461;-76
2022/03/10 01:43:12;;;;;;;1.50;1.10;;;;;;;;;;7386524;19;20007;-76
2022/03/10 01:45:38;;;;;;;1.58;0.98;;;;;;;;;;7389221;19;20035;-76
2022/03/10 01:48:03;;;;;;;2.97;1.02;;;;;;;;;;7389371;19;20019;-76
2022/03/10 01:50:29;;;;;;;3.28;1.20;;;;;;;;;;7391724;19;20029;-76
2022/03/10 01:52:54;;;;;;;1.45;1.10;;;;;;;;;;7385267;19;20006;-76
2022/03/10 01:55:19;;;;;;;2.28;1.10;;;;;;;;;;7388105;19;20010;-75
2022/03/10 01:57:45;;;;;;;1.77;0.70;;;;;;;;;;7390057;19;20002;-76
2022/03/10 02:00:12;;;;;;;1.58;1.10;;;;;;;;;;7382729;19;20006;-75
2022/03/10 02:02:38;;;;;;;2.80;1.20;;;;;;;;;;7381996;19;20538;-76
2022/03/10 02:05:03;;;;;;;3.05;1.60;;;;;;;;;;7386352;19;20018;-76
2022/03/10 02:10:18;;;;;;;2.58;1.10;;;;;;;;;;7388014;19;20025;-76
2022/03/10 02:12:51;;;;;;;2.35;1.20;;;;;;;;;;7388695;19;20006;-76
2022/03/10 02:18:06;;;;;;;2.95;1.10;;;;;;;;;;7389784;19;20017;-75
2022/03/10 02:20:32;;;;;;;2.17;1.00;;;;;;;;;;7385646;19;20015;-76
2022/03/10 02:22:58;;;;;;;7.30;1.50;;;;;;;;;;7385400;19;20062;-76
2022/03/10 02:25:24;;;;;;;2.35;1.20;;;;;;;;;;7386754;19;20036;-76
2022/03/10 02:27:52;;;;;;;3.70;1.50;;;;;;;;;;7387833;19;20409;-76
2022/03/10 02:30:19;;;;;;;5.50;1.50;;;;;;;;;;7389849;19;20017;-76
2022/03/10 02:32:46;;;;;;;3.38;1.40;;;;;;;;;;7385948;19;20772;-76
2022/03/10 02:35:11;;;;;;;3.67;1.13;;;;;;;;;;7383509;19;20010;-76
2022/03/10 02:37:37;;;;;;;4.72;1.65;;;;;;;;;;7388843;19;20007;-76
2022/03/10 02:40:04;;;;;;;2.90;1.25;;;;;;;;;;7386661;19;20003;-76
2022/03/10 02:42:31;;;;;;;2.22;1.23;;;;;;;;;;7386193;19;20068;-76
2022/03/10 02:44:56;;;;;;;4.60;1.58;;;;;;;;;;7386068;19;20397;-76
2022/03/10 02:47:22;;;;;;;3.55;1.30;;;;;;;;;;7386435;19;20066;-76
2022/03/10 02:49:47;;;;;;;3.10;1.40;;;;;;;;;;7385301;19;20018;-76
2022/03/10 02:52:13;;;;;;;2.55;1.40;;;;;;;;;;7386232;19;20377;-76
2022/03/10 02:54:38;;;;;;;2.92;1.40;;;;;;;;;;7388074;19;20028;-76
2022/03/10 02:57:04;;;;;;;4.45;1.25;;;;;;;;;;7387613;19;20007;-76
2022/03/10 02:59:29;;;;;;;4.95;1.42;;;;;;;;;;7387305;19;20049;-76
2022/03/10 03:01:58;;;;;;;3.55;1.40;;;;;;;;;;7387000;19;20057;-75
2022/03/10 03:04:23;;;;;;;2.95;1.42;;;;;;;;;;7386742;19;20017;-76
2022/03/10 03:06:49;;;;;;;2.80;1.30;;;;;;;;;;7380929;19;20006;-76
2022/03/10 03:09:14;;;;;;;3.13;1.30;;;;;;;;;;7386413;19;20022;-75
2022/03/10 03:11:39;;;;;;;2.35;1.10;;;;;;;;;;7387393;19;19995;-76
2022/03/10 03:14:04;;;;;;;2.75;1.30;;;;;;;;;;7386563;19;20043;-76
2022/03/10 03:16:30;;;;;;;2.47;1.30;;;;;;;;;;7386514;19;20358;-76
2022/03/10 03:18:56;;;;;;;4.20;1.83;;;;;;;;;;7387195;19;20010;-76
2022/03/10 03:21:21;;;;;;;3.00;1.23;;;;;;;;;;7384618;19;20051;-76
2022/03/10 03:23:47;;;;;;;2.70;1.33;;;;;;;;;;7387143;19;20007;-76
2022/03/10 03:26:13;;;;;;;3.75;1.30;;;;;;;;;;7385859;19;20015;-76
2022/03/10 03:28:38;;;;;;;2.38;1.15;;;;;;;;;;7384636;19;20484;-76
2022/03/10 03:31:03;;;;;;;4.30;1.50;;;;;;;;;;7393449;19;20018;-76
2022/03/10 03:33:30;;;;;;;4.25;1.45;;;;;;;;;;7396602;19;20027;-76
2022/03/10 03:35:55;;;;;;;2.38;1.10;;;;;;;;;;7391719;19;20007;-76
2022/03/10 03:38:21;;;;;;;2.40;1.02;;;;;;;;;;7391337;19;20058;-76
2022/03/10 03:40:46;;;;;;;4.70;1.50;;;;;;;;;;7397503;19;20010;-76
2022/03/10 03:43:11;;;;;;;5.57;1.38;;;;;;;;;;7391799;19;20367;-76
2022/03/10 03:45:36;;;;;;;4.18;1.63;;;;;;;;;;7390020;19;20090;-76
2022/03/10 03:48:02;;;;;;;2.58;1.33;;;;;;;;;;7391856;19;20101;-76
2022/03/10 03:50:27;;;;;;;2.80;1.20;;;;;;;;;;7388961;19;20027;-76
2022/03/10 03:52:52;;;;;;;1.67;1.17;;;;;;;;;;7387292;19;20014;-76
2022/03/10 03:55:18;;;;;;;4.80;1.38;;;;;;;;;;7390282;19;20018;-77
2022/03/10 03:57:43;;;;;;;2.28;1.27;;;;;;;;;;7391120;19;20017;-76
2022/03/10 04:00:10;;;;;;;4.60;1.20;;;;;;;;;;7386485;19;20027;-76
2022/03/10 04:02:36;;;;;;;3.15;1.50;;;;;;;;;;7390140;19;20070;-76
2022/03/10 04:05:02;;;;;;;2.95;1.60;;;;;;;;;;7390986;19;20089;-76
2022/03/10 04:07:27;;;;;;;2.97;1.20;;;;;;;;;;7385276;19;20006;-76
2022/03/10 04:09:53;;;;;;;2.55;1.30;;;;;;;;;;7391120;19;20025;-76
2022/03/10 04:12:18;;;;;;;3.25;1.50;;;;;;;;;;7391097;19;20476;-76
2022/03/10 04:14:43;;;;;;;3.33;1.60;;;;;;;;;;7387674;19;20020;-76
2022/03/10 04:17:08;;;;;;;6.45;1.60;;;;;;;;;;7389960;19;20016;-76
2022/03/10 04:19:33;;;;;;;3.10;1.30;;;;;;;;;;7391690;19;20462;-76
2022/03/10 04:21:59;;;;;;;4.65;1.60;;;;;;;;;;7389736;19;20013;-76
2022/03/10 04:24:24;;;;;;;2.22;1.20;;;;;;;;;;7388679;19;20103;-76
2022/03/10 04:26:49;;;;;;;3.58;1.50;;;;;;;;;;7390800;19;20013;-76
2022/03/10 04:29:15;;;;;;;2.63;1.10;;;;;;;;;;7399515;19;20011;-76
2022/03/10 04:31:41;;;;;;;2.88;1.38;;;;;;;;;;7397010;19;20030;-76
2022/03/10 04:34:08;;;;;;;1.92;1.02;;;;;;;;;;7398170;19;20035;-75
2022/03/10 04:36:34;;;;;;;3.70;1.20;;;;;;;;;;7394887;19;20143;-76
2022/03/10 04:38:59;;;;;;;2.85;1.10;;;;;;;;;;7390469;19;20112;-75
2022/03/10 04:41:25;;;;;;;5.44;1.30;;;;;;;;;;7252003;19;2706056;-76
2022/03/10 04:43:50;;;;;;;1.80;1.10;;;;;;;;;;7388724;19;20013;-75
2022/03/10 04:46:15;;;;;;;3.42;1.20;;;;;;;;;;7389717;19;20425;-76
2022/03/10 04:48:42;;;;;;;3.58;1.30;;;;;;;;;;7387585;19;20090;-76
2022/03/10 04:51:08;;;;;;;3.33;1.40;;;;;;;;;;7388487;19;20404;-76
2022/03/10 04:53:33;;;;;;;3.25;1.23;;;;;;;;;;7389271;19;20469;-75
2022/03/10 04:55:58;;;;;;;4.80;1.52;;;;;;;;;;7388458;19;20066;-76
2022/03/10 04:58:23;;;;;;;2.90;1.35;;;;;;;;;;7389107;19;20006;-75
2022/03/10 05:00:49;;;;;;;4.15;1.33;;;;;;;;;;7389297;19;20053;-75
2022/03/10 05:03:15;;;;;;;3.00;1.42;;;;;;;;;;7392374;19;20018;-75
2022/03/10 05:05:40;;;;;;;2.50;1.15;;;;;;;;;;7383924;19;19994;-76
2022/03/10 05:08:05;;;;;;;3.28;1.30;;;;;;;;;;7388061;19;20043;-76
2022/03/10 05:10:31;;;;;;;2.65;1.27;;;;;;;;;;7391470;19;19998;-76
2022/03/10 05:13:01;;;;;;;2.40;1.17;;;;;;;;;;7390381;19;20027;-76
2022/03/10 05:15:28;;;;;;;2.88;1.30;;;;;;;;;;7391829;19;20061;-76
2022/03/10 05:17:54;;;;;;;6.38;1.45;;;;;;;;;;7392449;19;20018;-76
2022/03/10 05:20:19;;;;;;;5.22;1.52;;;;;;;;;;7390145;19;20022;-76
2022/03/10 05:22:46;;;;;;;3.45;1.48;;;;;;;;;;7389664;19;20002;-76
2022/03/10 05:25:13;;;;;;;3.20;1.30;;;;;;;;;;7389365;19;20041;-76
2022/03/10 05:27:39;;;;;;;4.03;1.30;;;;;;;;;;7392622;19;20014;-76
2022/03/10 05:30:05;;;;;;;2.60;1.30;;;;;;;;;;7392365;19;20010;-76
2022/03/10 05:32:31;;;;;;;2.40;1.13;;;;;;;;;;7389057;19;20370;-76
2022/03/10 05:34:56;;;;;;;3.33;1.67;;;;;;;;;;7389789;19;20010;-76
2022/03/10 05:37:21;;;;;;;3.47;1.40;;;;;;;;;;7387533;19;20381;-76
2022/03/10 05:39:46;;;;;;;5.35;1.73;;;;;;;;;;7390810;19;20009;-76
2022/03/10 05:42:12;;;;;;;3.90;1.42;;;;;;;;;;7386792;19;20006;-76
2022/03/10 05:44:38;;;;;;;3.25;1.20;;;;;;;;;;7391773;19;20014;-76
2022/03/10 05:47:04;;;;;;;5.22;1.55;;;;;;;;;;7393076;19;20054;-76
2022/03/10 05:49:29;;;;;;;3.78;1.67;;;;;;;;;;7392250;19;20466;-76
2022/03/10 05:51:55;;;;;;;2.65;1.00;;;;;;;;;;7390009;19;20006;-76
2022/03/10 05:54:20;;;;;;;3.10;1.40;;;;;;;;;;7387188;19;20033;-75
2022/03/10 05:56:45;;;;;;;3.45;1.00;;;;;;;;;;7391845;19;20045;-76
2022/03/10 05:59:10;;;;;;;3.45;1.23;;;;;;;;;;7390544;19;20006;-76
2022/03/10 06:01:36;;;;;;;2.72;1.60;;;;;;;;;;7386435;19;20002;-76
2022/03/10 06:04:01;;;;;;;5.63;2.20;;;;;;;;;;7385038;19;20018;-76
2022/03/10 06:06:26;;;;;;;5.57;2.30;;;;;;;;;;7385059;19;20423;-76
2022/03/10 06:08:52;;;;;;;8.38;2.80;;;;;;;;;;7388675;19;20010;-76
2022/03/10 06:11:17;;;;;;;5.90;2.58;;;;;;;;;;7381210;19;20002;-76
2022/03/10 06:13:42;;;;;;;7.40;2.53;;;;;;;;;;7382233;19;20048;-76
2022/03/10 06:16:07;;;;;;;5.85;2.42;;;;;;;;;;7385121;19;20472;-76
2022/03/10 06:18:33;;;;;;;4.63;1.88;;;;;;;;;;7387661;19;20031;-76
2022/03/10 06:20:58;;;;;;;5.93;1.52;;;;;;;;;;7389279;19;20016;-76
2022/03/10 06:23:23;;;;;;;8.15;1.98;;;;;;;;;;7390590;19;20011;-76
2022/03/10 06:25:49;;;;;;;3.25;1.58;;;;;;;;;;7388748;19;20441;-76
2022/03/10 06:28:14;;;;;;;4.47;1.73;;;;;;;;;;7388611;19;20078;-76
2022/03/10 06:30:40;;;;;;;4.22;1.70;;;;;;;;;;7389008;19;20002;-76
2022/03/10 06:33:05;;;;;;;3.50;1.65;;;;;;;;;;7386627;19;20465;-76
2022/03/10 06:35:30;;;;;;;2.30;1.23;;;;;;;;;;7385217;19;20006;-76
2022/03/10 06:37:55;;;;;;;4.13;1.55;;;;;;;;;;7386624;19;20010;-76
2022/03/10 06:40:21;;;;;;;3.72;1.63;;;;;;;;;;7381145;19;20363;-76
2022/03/10 06:42:46;;;;;;;4.75;1.77;;;;;;;;;;7383280;19;20014;-76
2022/03/10 06:45:11;;;;;;;1.85;1.02;;;;;;;;;;7382046;19;20022;-76
2022/03/10 06:47:36;;;;;;;4.57;1.50;;;;;;;;;;7380811;19;20035;-76
2022/03/10 06:50:02;;;;;;;3.17;1.35;;;;;;;;;;7381969;19;20011;-76
2022/03/10 06:52:31;;;;;;;3.30;1.50;;;;;;;;;;7378651;19;20024;-76
2022/03/10 06:54:56;;;;;;;2.88;1.48;;;;;;;;;;7380878;19;20370;-75
2022/03/10 06:57:22;;;;;;;2.65;1.55;;;;;;;;;;7386437;19;20019;-76
2022/03/10 06:59:47;;;;;;;4.35;1.52;;;;;;;;;;7380014;19;20015;-75
2022/03/10 07:02:12;;;;;;;4.22;1.73;;;;;;;;;;7380257;19;20002;-74
2022/03/10 07:04:37;;;;;;;7.63;1.85;;;;;;;;;;7381085;19;20014;-73
2022/03/10 07:07:03;;;;;;;6.60;2.00;;;;;;;;;;7384212;19;20003;-73
2022/03/10 07:09:28;;;;;;;5.95;1.90;;;;;;;;;;7387023;19;20030;-73
2022/03/10 07:11:54;;;;;;;3.22;1.90;;;;;;;;;;7384202;19;19999;-73
2022/03/10 07:14:19;;;;;;;4.15;1.80;;;;;;;;;;7389788;19;20003;-73
2022/03/10 07:16:45;;;;;;;7.05;2.38;;;;;;;;;;7390048;19;20001;-73
2022/03/10 07:19:10;;;;;;;4.97;2.00;;;;;;;;;;7388818;19;19999;-73
2022/03/10 07:21:37;;;;;;;5.63;2.55;;;;;;;;;;7387434;19;20003;-73
2022/03/10 07:24:04;;;;;;;3.85;2.08;;;;;;;;;;7387634;19;20010;-73
2022/03/10 07:26:29;;;;;;;3.88;1.98;;;;;;;;;;7386594;19;20040;-73
2022/03/10 07:28:56;;;;;;;5.18;2.22;;;;;;;;;;7387917;19;19995;-73
2022/03/10 07:31:21;;;;;;;6.35;2.42;;;;;;;;;;7386744;19;20029;-73
2022/03/10 07:33:46;;;;;;;4.25;2.03;;;;;;;;;;7388383;19;20011;-73
2022/03/10 07:36:12;;;;;;;7.38;2.38;;;;;;;;;;7382342;19;20011;-73
2022/03/10 07:38:37;;;;;;;5.32;2.85;;;;;;;;;;7386168;19;20471;-73
2022/03/10 07:41:02;;;;;;;5.28;2.67;;;;;;;;;;7387329;19;20465;-73
2022/03/10 07:43:28;;;;;;;5.03;2.50;;;;;;;;;;7386627;19;20346;-73
2022/03/10 07:45:53;;;;;;;6.93;2.80;;;;;;;;;;7385098;19;20081;-72
2022/03/10 07:48:19;;;;;;;5.07;2.63;;;;;;;;;;7378627;19;20006;-73
2022/03/10 07:50:44;;;;;;;5.97;2.70;;;;;;;;;;7384375;19;20018;-73
2022/03/10 07:53:09;;;;;;;5.63;2.60;;;;;;;;;;7384443;19;20030;-73
2022/03/10 07:55:35;;;;;;;4.10;2.47;;;;;;;;;;7386870;19;20011;-74
2022/03/10 07:58:01;;;;;;;7.70;2.97;;;;;;;;;;7389924;19;19999;-73
2022/03/10 08:00:27;;;;;;;8.15;3.50;;;;;;;;;;7387017;19;20035;-73
2022/03/10 08:02:52;;;;;;;5.75;2.83;;;;;;;;;;7388074;19;20010;-74
2022/03/10 08:05:17;;;;;;;9.98;3.05;;;;;;;;;;7386281;19;20022;-73
2022/03/10 08:07:43;;;;;;;4.20;2.83;;;;;;;;;;7384581;19;20051;-73
2022/03/10 08:10:08;;;;;;;6.57;3.28;;;;;;;;;;7386254;19;19999;-73
2022/03/10 08:12:34;;;;;;;7.55;2.97;;;;;;;;;;7386239;19;20385;-73
2022/03/10 08:15:01;;;;;;;4.10;2.55;;;;;;;;;;7388663;19;20396;-73
2022/03/10 08:17:26;;;;;;;5.90;3.47;;;;;;;;;;7395220;19;20014;-74
2022/03/10 08:19:53;;;;;;;7.43;3.08;;;;;;;;;;7394549;19;20002;-74
2022/03/10 08:22:20;;;;;;;6.10;3.55;;;;;;;;;;7391389;19;20011;-74
2022/03/10 08:24:46;;;;;;;6.10;3.13;;;;;;;;;;7391773;19;20069;-74
2022/03/10 08:27:11;;;;;;;6.10;3.30;;;;;;;;;;7391273;19;20354;-74
2022/03/10 08:29:37;;;;;;;7.97;3.63;;;;;;;;;;7391778;19;20005;-74
2022/03/10 08:32:03;;;;;;;8.40;3.45;;;;;;;;;;7391332;19;20040;-74
2022/03/10 08:34:29;;;;;;;6.03;3.30;;;;;;;;;;7391746;19;20002;-75
2022/03/10 08:36:55;;;;;;;4.78;2.67;;;;;;;;;;7394233;19;20010;-75
2022/03/10 08:39:20;;;;;;;5.97;3.38;;;;;;;;;;7390357;19;20095;-75
2022/03/10 08:41:45;;;;;;;6.68;3.53;;;;;;;;;;7391027;19;20010;-75
2022/03/10 08:44:12;;;;;;;8.05;3.78;;;;;;;;;;7394487;19;20354;-76
2022/03/10 08:46:38;;;;;;;5.03;2.97;;;;;;;;;;7389508;19;20074;-77
2022/03/10 08:49:03;;;;;;;5.18;2.90;;;;;;;;;;7393562;19;20010;-75
2022/03/10 08:51:29;;;;;;;8.00;3.45;;;;;;;;;;7389953;19;20003;-76
2022/03/10 08:53:54;;;;;;;5.55;3.35;;;;;;;;;;7396156;19;20042;-76
2022/03/10 08:56:19;;;;;;;5.82;3.30;;;;;;;;;;7394133;19;20006;-76
2022/03/10 08:58:45;;;;;;;5.32;3.30;;;;;;;;;;7393208;19;20491;-77
2022/03/10 09:01:10;;;;;;;5.47;3.25;;;;;;;;;;7390524;19;20377;-76
2022/03/10 09:03:35;;;;;;;4.95;3.25;;;;;;;;;;7390717;19;20002;-77
2022/03/10 09:06:00;;;;;;;4.78;2.88;;;;;;;;;;7392000;19;19998;-76
2022/03/10 09:08:26;;;;;;;4.95;2.92;;;;;;;;;;7392475;19;20437;-77
2022/03/10 09:10:51;;;;;;;6.53;3.47;;;;;;;;;;7393609;19;20013;-79
2022/03/10 09:13:16;;;;;;;7.15;3.70;;;;;;;;;;7394211;19;19999;-79
2022/03/10 09:15:45;;;;;;;7.90;3.20;;;;;;;;;;7394456;19;20011;-78
2022/03/10 09:18:11;;;;;;;6.93;3.00;;;;;;;;;;7395343;19;20103;-78
2022/03/10 09:20:37;;;;;;;4.93;2.92;;;;;;;;;;7394336;19;20346;-78
2022/03/10 09:23:03;;;;;;;8.18;3.58;;;;;;;;;;7397360;19;20010;-78
2022/03/10 09:25:28;;;;;;;5.25;3.25;;;;;;;;;;7395613;19;20010;-77
2022/03/10 09:27:54;;;;;;;7.50;3.25;;;;;;;;;;7392511;19;20006;-78
2022/03/10 09:30:19;;;;;;;5.07;3.28;;;;;;;;;;7394915;19;20472;-78
2022/03/10 09:32:44;;;;;;;6.55;3.10;;;;;;;;;;7396392;19;20002;-78
2022/03/10 09:35:12;;;;;;;6.60;3.47;;;;;;;;;;7394744;19;19999;-77
2022/03/10 09:37:38;;;;;;;5.50;3.33;;;;;;;;;;7397189;19;20022;-78
2022/03/10 09:40:04;;;;;;;7.00;3.55;;;;;;;;;;7397226;19;20462;-78
2022/03/10 09:42:31;;;;;;;5.55;3.03;;;;;;;;;;7395106;19;20029;-76
2022/03/10 09:45:00;;;;;;;5.75;2.85;;;;;;;;;;7401763;19;20035;-79
2022/03/10 09:47:26;;;;;;;5.10;2.92;;;;;;;;;;7403905;19;20389;-79
2022/03/10 09:49:53;;;;;;;5.40;3.28;;;;;;;;;;7396327;19;20006;-78
2022/03/10 09:52:18;;;;;;;5.78;3.28;;;;;;;;;;7399513;19;20028;-78
2022/03/10 09:54:44;;;;;;;5.85;3.45;;;;;;;;;;7395097;19;20462;-77
2022/03/10 09:57:10;;;;;;;8.00;3.15;;;;;;;;;;7394540;19;20002;-77
2022/03/10 09:59:58;;;;;;;5.25;3.13;;;;;;;;;;7388502;19;20538;-77
2022/03/10 10:02:24;;;;;;;6.07;2.95;;;;;;;;;;7392664;19;20002;-77
2022/03/10 10:04:51;;;;;;;7.68;3.88;;;;;;;;;;7391137;19;20009;-77
2022/03/10 10:07:21;;;;;;;9.23;3.70;;;;;;;;;;7394272;19;20007;-77
2022/03/10 10:09:53;;;;;;;6.85;3.78;;;;;;;;;;7389301;19;20083;-77
2022/03/10 10:12:22;;;;;;;5.53;3.03;;;;;;;;;;7388829;19;20015;-77
2022/03/10 10:14:48;;;;;;;5.18;3.35;;;;;;;;;;7391155;19;20013;-76
2022/03/10 10:17:15;;;;;;;6.68;3.53;;;;;;;;;;7394415;19;20002;-78
2022/03/10 10:19:42;;;;;;;6.72;3.33;;;;;;;;;;7391280;19;20482;-75
2022/03/10 10:22:23;;;;;;;9.48;4.25;;;;;;;;;;7395284;19;20114;-78
2022/03/10 10:24:54;;;;;;;6.45;3.22;;;;;;;;;;7394251;19;20077;-78
2022/03/10 10:27:22;;;;;;;6.50;3.88;;;;;;;;;;7398453;19;20106;-77
2022/03/10 10:29:53;;;;;;;6.05;3.38;;;;;;;;;;7393816;19;20014;-78
2022/03/10 10:32:34;;;;;;;9.13;4.05;;;;;;;;;;7394535;19;20033;-77
2022/03/10 10:35:13;;;;;;;9.55;4.40;;;;;;;;;;7395249;19;20031;-77
2022/03/10 10:37:40;;;;;;;7.72;3.58;;;;;;;;;;7392361;19;20016;-77
2022/03/10 10:40:07;;;;;;;7.57;3.97;;;;;;;;;;7390256;19;20126;-77
2022/03/10 10:42:35;;;;;;;7.95;3.58;;;;;;;;;;7394049;19;19994;-79
2022/03/10 10:45:02;;;;;;;4.65;2.97;;;;;;;;;;7395032;19;20006;-80
2022/03/10 10:47:28;;;;;;;6.45;4.00;;;;;;;;;;7403506;19;20077;-79
2022/03/10 10:50:01;;;;;;;6.40;3.70;;;;;;;;;;7392806;19;20132;-79
2022/03/10 10:52:38;;;;;;;8.05;3.70;;;;;;;;;;7393986;19;20501;-79
2022/03/10 10:55:05;;;;;;;7.05;3.60;;;;;;;;;;7394319;19;20041;-78
2022/03/10 10:57:34;;;;;;;6.50;3.70;;;;;;;;;;7393577;19;20006;-80
2022/03/10 11:00:18;;;;;;;6.72;3.30;;;;;;;;;;7390458;19;20364;-79
2022/03/10 11:02:43;;;;;;;7.43;3.22;;;;;;;;;;7396728;19;20043;-81
2022/03/10 11:05:14;;;;;;;6.53;3.30;;;;;;;;;;7395451;19;20507;-80
2022/03/10 11:07:41;;;;;;;5.45;3.22;;;;;;;;;;7397912;19;20003;-80
2022/03/10 11:10:11;;;;;;;5.82;3.25;;;;;;;;;;7395239;19;20066;-79
2022/03/10 11:12:39;;;;;;;36.58;3.30;;;;;;;;;;7394825;19;20352;-80
2022/03/10 11:15:07;;;;;;;5.72;3.28;;;;;;;;;;7395199;19;20344;-80
2022/03/10 11:17:34;;;;;;;4.72;2.85;;;;;;;;;;7396534;19;20070;-81
2022/03/10 11:20:02;;;;;;;4.10;2.90;;;;;;;;;;7396617;19;20009;-79
2022/03/10 11:23:05;;;;;;;5.03;2.20;;;;;;;;;;7397265;19;19999;-80
2022/03/10 11:25:43;;;;;;;4.68;2.60;;;;;;;;;;7392384;19;21177;-80
2022/03/10 11:28:17;;;;;;;4.28;2.55;;;;;;;;;;7396085;19;20011;-80
2022/03/10 11:30:49;;;;;;;4.60;2.58;;;;;;;;;;7415749;19;20011;-77
2022/03/10 11:33:16;;;;;;;7.88;2.70;;;;;;;;;;7418029;19;19995;-79
2022/03/10 11:35:51;;;;;;;8.82;2.83;;;;;;;;;;7418302;19;20037;-77
2022/03/10 11:38:18;;;;;;;;;;;;;;;;;;7415905;19;19990;-79
2022/03/10 11:40:52;;;;;;;4.93;2.90;;;;;;;;;;7403894;19;20028;-80
2022/03/10 11:43:29;;;;;;;4.97;3.20;;;;;;;;;;7393209;19;20006;-79
2022/03/10 11:46:28;;;;;;;15.82;3.45;;;;;;;;;;7394554;19;20072;-80
2022/03/10 11:49:14;;;;;;;4.15;2.60;;;;;;;;;;7398994;19;20007;-80
2022/03/10 11:51:56;;;;;;;5.15;2.85;;;;;;;;;;7399777;19;20006;-80
2022/03/10 11:54:30;;;;;;;4.10;2.60;;;;;;;;;;7404148;19;20006;-80
2022/03/10 11:57:09;;;;;;;4.85;2.97;;;;;;;;;;7403519;19;20121;-80
2022/03/10 11:59:34;;;;;;;5.72;2.88;;;;;;;;;;7403275;19;20022;-78
2022/03/10 12:02:01;;;;;;;5.53;2.97;;;;;;;;;;7418444;19;20039;-79
2022/03/10 12:04:37;;;;;;;5.78;3.40;;;;;;;;;;7407692;19;20046;-78
2022/03/10 12:07:03;;;;;;;25.50;9.07;;;;;;;;;;7404524;19;20025;-80
2022/03/10 12:09:33;;;;;;;14.93;5.32;;;;;;;;;;7407354;19;20083;-80
2022/03/10 12:12:20;;;;;;;13.48;4.22;;;;;;;;;;7410561;19;20027;-80
2022/03/10 12:14:46;;;;;;;7.65;3.13;;;;;;;;;;7402180;19;20002;-79
2022/03/10 12:17:42;;;;;;;8.65;3.15;;;;;;;;;;7404055;19;20471;-79
2022/03/10 12:20:18;;;;;;;6.32;2.85;;;;;;;;;;7400477;19;20014;-79
2022/03/10 12:23:02;;;;;;;;;;;;;;;;;;7401721;19;20027;-78
2022/03/10 12:25:27;;;;;;;5.28;2.47;;;;;;;;;;7399672;19;19926;-80
2022/03/10 12:27:54;;;;;;;3.95;2.33;;;;;;;;;;7401519;19;20006;-80
2022/03/10 12:30:22;;;;;;;5.57;2.47;;;;;;;;;;7401668;19;20404;-79
2022/03/10 12:32:52;;;;;;;2.95;1.83;;;;;;;;;;7400997;19;20021;-78
2022/03/10 12:35:28;;;;;;;3.55;2.17;;;;;;;;;;7400983;19;20045;-80
2022/03/10 12:37:54;;;;;;;7.50;2.20;;;;;;;;;;7400939;19;20013;-79
2022/03/10 12:40:21;;;;;;;2.58;2.00;;;;;;;;;;7400995;19;20006;-80
2022/03/10 12:42:47;;;;;;;3.00;1.92;;;;;;;;;;7399983;19;20009;-80
2022/03/10 12:45:17;;;;;;;3.88;2.00;;;;;;;;;;7399781;19;20010;-79
2022/03/10 12:47:47;;;;;;;2.72;1.88;;;;;;;;;;7403136;19;20041;-80
2022/03/10 12:50:13;;;;;;;2.55;1.85;;;;;;;;;;7401744;19;20007;-79
2022/03/10 12:52:42;;;;;;;3.80;2.47;;;;;;;;;;7394622;19;19995;-82
2022/03/10 12:55:10;;;;;;;3.88;2.03;;;;;;;;;;7400183;19;20010;-80
2022/03/10 12:57:38;;;;;;;4.78;2.45;;;;;;;;;;7399225;19;20078;-80
2022/03/10 13:00:17;;;;;;;4.63;2.70;;;;;;;;;;7397163;19;20024;-81
2022/03/10 13:02:43;;;;;;;4.18;2.65;;;;;;;;;;7398372;19;20003;-80
2022/03/10 13:05:08;;;;;;;7.00;2.85;;;;;;;;;;7393555;19;20045;-82
2022/03/10 13:07:34;;;;;;;4.38;2.65;;;;;;;;;;7398092;19;20352;-81
2022/03/10 13:10:04;;;;;;;3.72;2.38;;;;;;;;;;7399220;19;20002;-82
2022/03/10 13:12:41;;;;;;;4.45;3.00;;;;;;;;;;7393914;19;20042;-82
2022/03/10 13:15:17;;;;;;;5.45;2.70;;;;;;;;;;7398373;19;20399;-81
2022/03/10 13:17:44;;;;;;;6.30;3.00;;;;;;;;;;7397040;19;20007;-81
2022/03/10 13:20:16;;;;;;;5.97;2.95;;;;;;;;;;7395576;19;20477;-79
2022/03/10 13:22:56;;;;;;;5.32;3.30;;;;;;;;;;7396393;19;20442;-80
2022/03/10 13:25:25;;;;;;;4.78;2.55;;;;;;;;;;7396932;19;20013;-81
2022/03/10 13:27:57;;;;;;;5.60;2.90;;;;;;;;;;7397088;19;20034;-81
2022/03/10 13:30:25;;;;;;;6.35;3.15;;;;;;;;;;7396383;19;20114;-80
2022/03/10 13:32:52;;;;;;;5.22;3.20;;;;;;;;;;7398935;19;20007;-80
2022/03/10 13:35:45;;;;;;;5.60;2.58;;;;;;;;;;7396746;19;20005;-81
2022/03/10 13:38:21;;;;;;;5.05;2.80;;;;;;;;;;7392412;19;20041;-80
2022/03/10 13:40:47;;;;;;;4.90;3.00;;;;;;;;;;7396722;19;20011;-81
2022/03/10 13:43:29;;;;;;;5.38;2.65;;;;;;;;;;7396346;19;20032;-80
2022/03/10 13:45:54;;;;;;;8.15;2.90;;;;;;;;;;7400608;19;20019;-80
2022/03/10 13:48:24;;;;;;;5.05;2.78;;;;;;;;;;7398451;19;20003;-81
2022/03/10 13:50:51;;;;;;;4.38;2.60;;;;;;;;;;7400998;19;20015;-81
2022/03/10 13:53:16;;;;;;;5.88;2.95;;;;;;;;;;7398507;19;20025;-81
2022/03/10 13:55:51;;;;;;;6.38;2.50;;;;;;;;;;7396195;19;20003;-80
2022/03/10 13:58:17;;;;;;;7.28;2.83;;;;;;;;;;7395261;19;20066;-81
2022/03/10 14:00:46;;;;;;;4.30;2.83;;;;;;;;;;7393511;19;20015;-78
2022/03/10 14:03:13;;;;;;;5.55;3.00;;;;;;;;;;7396354;19;20090;-82
2022/03/10 14:05:43;;;;;;;5.53;3.10;;;;;;;;;;7397830;19;20445;-81
2022/03/10 14:08:21;;;;;;;4.57;2.60;;;;;;;;;;7397318;19;20003;-81
2022/03/10 14:11:03;;;;;;;4.85;3.00;;;;;;;;;;7397367;19;20413;-81
2022/03/10 14:13:33;;;;;;;4.22;2.90;;;;;;;;;;7394512;19;20003;-81
2022/03/10 14:16:19;;;;;;;7.63;3.58;;;;;;;;;;7395139;19;20003;-79
2022/03/10 14:18:49;;;;;;;5.25;3.22;;;;;;;;;;7393541;19;20018;-80
2022/03/10 14:21:17;;;;;;;5.00;3.03;;;;;;;;;;7397474;19;20102;-80
2022/03/10 14:23:42;;;;;;;4.03;2.85;;;;;;;;;;7394201;19;20003;-81
2022/03/10 14:26:16;;;;;;;6.00;3.28;;;;;;;;;;7392058;19;20024;-80
2022/03/10 14:28:44;;;;;;;5.07;3.30;;;;;;;;;;7393488;19;20066;-80
2022/03/10 14:31:18;;;;;;;9.70;3.13;;;;;;;;;;7395990;19;20007;-79
2022/03/10 14:33:48;;;;;;;6.25;3.38;;;;;;;;;;7392852;19;20170;-81
2022/03/10 14:36:15;;;;;;;7.00;3.05;;;;;;;;;;7397164;19;20503;-80
2022/03/10 14:38:41;;;;;;;5.70;3.17;;;;;;;;;;7391544;19;19999;-80
2022/03/10 14:41:08;;;;;;;6.18;3.05;;;;;;;;;;7396103;19;20014;-78
2022/03/10 14:43:35;;;;;;;4.88;2.83;;;;;;;;;;7395531;19;20005;-79
2022/03/10 14:46:02;;;;;;;4.85;2.75;;;;;;;;;;7393124;19;20425;-77
2022/03/10 14:48:27;;;;;;;8.02;2.95;;;;;;;;;;7394325;19;20018;-80
2022/03/10 14:50:54;;;;;;;3.30;2.33;;;;;;;;;;7396347;19;20062;-78